PWSweather.com
Personal Weather Stations
Station Observations
PENICUIKWS
PenicuikGB

PenicuikGB

Lat: 55.830932, Lon: -3.224533000000065

Elevation: 166

Station Type: Fine Offset

http://weather.penicuik.org

High Low Average
Temperature 80.4°F26.9°C 47.1°F8.4°C 67.0°F19.4°C
Dew Point 61.8°F16.6°C 46.3°F7.9°C 55.4°F13.0°C
Winds 5.8 mph 9.3 kmh Calm Calm 2.0 mph SE3.2 kmh SE
Wind Gusts 9.2 mph14.8 kmh -- 3.0 mph4.8 kmh
Humidity 98% 43% 69%
Pressure 30.13 in1020.3 mb 29.93 in1013.5 mb -
Precipitation 0.00 in0.0 mm - -
Hour Temp Dew Point Humidity Winds Wind Gusts Pressure Precip Precip Rate Daily Precip Total
12:00 AM 51.1°F10.6°C 49.1°F9.5°C 93% 0.4 mph WSW0.6 kmh WSW 2.2 mph3.5 kmh 30.13 in1020.3 mb 0.00 in0.0 mm 0.00 in0.0 mm 0.00 in0.0 mm
12:15 AM 50.7°F10.4°C 49.1°F9.5°C 94% 0.1 mph WNW0.2 kmh WNW 0.7 mph1.1 kmh 30.13 in1020.3 mb 0.00 in0.0 mm 0.00 in0.0 mm 0.00 in0.0 mm
12:30 AM 50.4°F10.2°C 48.7°F9.3°C 94% 0.2 mph WSW0.3 kmh WSW 0.7 mph1.1 kmh 30.13 in1020.3 mb 0.00 in0.0 mm 0.00 in0.0 mm 0.00 in0.0 mm
12:45 AM 50.2°F10.1°C 48.5°F9.2°C 94% 0.4 mph SW0.6 kmh SW 1.6 mph2.6 kmh 30.12 in1020.0 mb 0.00 in0.0 mm 0.00 in0.0 mm 0.00 in0.0 mm
01:00 AM 49.8°F9.9°C 48.4°F9.1°C 95% 0.6 mph SW1.0 kmh SW 1.6 mph2.6 kmh 30.12 in1020.0 mb 0.00 in0.0 mm 0.00 in0.0 mm 0.00 in0.0 mm
01:15 AM 49.5°F9.7°C 48.1°F8.9°C 95% Calm Calm 0.7 mph1.1 kmh 30.12 in1020.0 mb 0.00 in0.0 mm 0.00 in0.0 mm 0.00 in0.0 mm
01:30 AM 49.1°F9.5°C 47.7°F8.7°C 95% 0.5 mph S0.8 kmh S 1.6 mph2.6 kmh 30.12 in1020.0 mb 0.00 in0.0 mm 0.00 in0.0 mm 0.00 in0.0 mm
01:45 AM 48.7°F9.3°C 47.4°F8.6°C 95% Calm Calm -- 30.12 in1020.0 mb 0.00 in0.0 mm 0.00 in0.0 mm 0.00 in0.0 mm
02:00 AM 48.6°F9.2°C 47.2°F8.4°C 95% 0.3 mph SW0.5 kmh SW 1.6 mph2.6 kmh 30.11 in1019.6 mb 0.00 in0.0 mm 0.00 in0.0 mm 0.00 in0.0 mm
02:15 AM 48.2°F9.0°C 47.1°F8.4°C 96% 0.2 mph WSW0.3 kmh WSW 0.7 mph1.1 kmh 30.11 in1019.6 mb 0.00 in0.0 mm 0.00 in0.0 mm 0.00 in0.0 mm
02:30 AM 48.0°F8.9°C 47.2°F8.4°C 97% 0.1 mph SSW0.2 kmh SSW 0.7 mph1.1 kmh 30.10 in1019.3 mb 0.00 in0.0 mm 0.00 in0.0 mm 0.00 in0.0 mm
02:45 AM 47.8°F8.8°C 47.0°F8.3°C 97% 0.2 mph SW0.3 kmh SW 0.7 mph1.1 kmh 30.10 in1019.3 mb 0.00 in0.0 mm 0.00 in0.0 mm 0.00 in0.0 mm
03:00 AM 47.7°F8.7°C 46.9°F8.3°C 97% Calm Calm 0.7 mph1.1 kmh 30.10 in1019.3 mb 0.00 in0.0 mm 0.00 in0.0 mm 0.00 in0.0 mm
03:15 AM 47.5°F8.6°C 46.7°F8.2°C 97% 0.4 mph WSW0.6 kmh WSW 2.2 mph3.5 kmh 30.09 in1019.0 mb 0.00 in0.0 mm 0.00 in0.0 mm 0.00 in0.0 mm
03:30 AM 47.3°F8.5°C 46.5°F8.1°C 97% 0.5 mph WSW0.8 kmh WSW 1.6 mph2.6 kmh 30.09 in1019.0 mb 0.00 in0.0 mm 0.00 in0.0 mm 0.00 in0.0 mm
03:45 AM 47.1°F8.4°C 46.3°F7.9°C 97% Calm Calm -- 30.09 in1019.0 mb 0.00 in0.0 mm 0.00 in0.0 mm 0.00 in0.0 mm
04:00 AM 47.1°F8.4°C 46.3°F7.9°C 97% 0.2 mph W0.3 kmh W 0.7 mph1.1 kmh 30.09 in1019.0 mb 0.00 in0.0 mm 0.00 in0.0 mm 0.00 in0.0 mm
04:15 AM 47.7°F8.7°C 47.1°F8.4°C 98% 1.4 mph SE2.3 kmh SE 2.2 mph3.5 kmh 30.08 in1018.6 mb 0.00 in0.0 mm 0.00 in0.0 mm 0.00 in0.0 mm
04:30 AM 49.6°F9.8°C 49.1°F9.5°C 98% 2.2 mph SE3.5 kmh SE 3.1 mph5.0 kmh 30.09 in1019.0 mb 0.00 in0.0 mm 0.00 in0.0 mm 0.00 in0.0 mm
04:45 AM 54.9°F12.7°C 52.6°F11.4°C 92% 1.3 mph S2.1 kmh S 3.1 mph5.0 kmh 30.08 in1018.6 mb 0.00 in0.0 mm 0.00 in0.0 mm 0.00 in0.0 mm
05:00 AM 56.5°F13.6°C 49.0°F9.4°C 76% 2.2 mph S3.5 kmh S 3.1 mph5.0 kmh 30.08 in1018.6 mb 0.00 in0.0 mm 0.00 in0.0 mm 0.00 in0.0 mm
05:15 AM 57.9°F14.4°C 49.0°F9.4°C 72% 2.8 mph SSE4.5 kmh SSE 3.8 mph6.1 kmh 30.08 in1018.6 mb 0.00 in0.0 mm 0.00 in0.0 mm 0.00 in0.0 mm
05:30 AM 61.3°F16.3°C 51.5°F10.8°C 70% 1.8 mph S2.9 kmh S 3.1 mph5.0 kmh 30.08 in1018.6 mb 0.00 in0.0 mm 0.00 in0.0 mm 0.00 in0.0 mm
05:45 AM 64.8°F18.2°C 53.6°F12.0°C 67% 1.2 mph S1.9 kmh S 2.2 mph3.5 kmh 30.07 in1018.3 mb 0.00 in0.0 mm 0.00 in0.0 mm 0.00 in0.0 mm
06:00 AM 73.2°F22.9°C 56.6°F13.7°C 56% Calm Calm -- 30.07 in1018.3 mb 0.00 in0.0 mm 0.00 in0.0 mm 0.00 in0.0 mm
06:15 AM 73.0°F22.8°C 53.3°F11.8°C 50% 1.2 mph S1.9 kmh S 1.6 mph2.6 kmh 30.07 in1018.3 mb 0.00 in0.0 mm 0.00 in0.0 mm 0.00 in0.0 mm
06:30 AM 75.6°F24.2°C 51.5°F10.8°C 43% 0.8 mph N1.3 kmh N 1.6 mph2.6 kmh 30.06 in1017.9 mb 0.00 in0.0 mm 0.00 in0.0 mm 0.00 in0.0 mm
06:45 AM 73.8°F23.2°C 53.4°F11.9°C 49% 2.4 mph N3.9 kmh N 3.8 mph6.1 kmh 30.06 in1017.9 mb 0.00 in0.0 mm 0.00 in0.0 mm 0.00 in0.0 mm
07:00 AM 73.6°F23.1°C 54.9°F12.7°C 52% 2.0 mph NNE3.2 kmh NNE 2.2 mph3.5 kmh 30.06 in1017.9 mb 0.00 in0.0 mm 0.00 in0.0 mm 0.00 in0.0 mm
07:15 AM 72.9°F22.7°C 53.7°F12.1°C 51% 2.6 mph N4.2 kmh N 3.8 mph6.1 kmh 30.06 in1017.9 mb 0.00 in0.0 mm 0.00 in0.0 mm 0.00 in0.0 mm
07:30 AM 71.4°F21.9°C 54.4°F12.4°C 55% 2.6 mph N4.2 kmh N 3.8 mph6.1 kmh 30.06 in1017.9 mb 0.00 in0.0 mm 0.00 in0.0 mm 0.00 in0.0 mm
07:45 AM 73.8°F23.2°C 55.6°F13.1°C 53% 2.4 mph NNE3.9 kmh NNE 3.8 mph6.1 kmh 30.06 in1017.9 mb 0.00 in0.0 mm 0.00 in0.0 mm 0.00 in0.0 mm
08:00 AM 76.6°F24.8°C 55.5°F13.1°C 48% 1.7 mph NE2.7 kmh NE 3.1 mph5.0 kmh 30.05 in1017.6 mb 0.00 in0.0 mm 0.00 in0.0 mm 0.00 in0.0 mm
08:15 AM 77.7°F25.4°C 55.9°F13.3°C 47% 2.1 mph NNE3.4 kmh NNE 3.8 mph6.1 kmh 30.04 in1017.3 mb 0.00 in0.0 mm 0.00 in0.0 mm 0.00 in0.0 mm
08:30 AM 77.0°F25.0°C 56.4°F13.6°C 49% 2.1 mph N3.4 kmh N 3.1 mph5.0 kmh 30.05 in1017.6 mb 0.00 in0.0 mm 0.00 in0.0 mm 0.00 in0.0 mm
08:45 AM 76.6°F24.8°C 57.7°F14.3°C 52% 2.6 mph NE4.2 kmh NE 4.5 mph7.2 kmh 30.04 in1017.3 mb 0.00 in0.0 mm 0.00 in0.0 mm 0.00 in0.0 mm
09:00 AM 79.2°F26.2°C 56.6°F13.7°C 46% 2.5 mph E4.0 kmh E 4.5 mph7.2 kmh 30.04 in1017.3 mb 0.00 in0.0 mm 0.00 in0.0 mm 0.00 in0.0 mm
09:15 AM 80.4°F26.9°C 57.8°F14.3°C 46% 2.4 mph NE3.9 kmh NE 3.8 mph6.1 kmh 30.03 in1016.9 mb 0.00 in0.0 mm 0.00 in0.0 mm 0.00 in0.0 mm
09:30 AM 79.2°F26.2°C 58.4°F14.7°C 49% 3.1 mph NE5.0 kmh NE 5.4 mph8.7 kmh 30.03 in1016.9 mb 0.00 in0.0 mm 0.00 in0.0 mm 0.00 in0.0 mm
09:45 AM 80.2°F26.8°C 59.4°F15.2°C 49% 2.8 mph NW4.5 kmh NW 4.5 mph7.2 kmh 30.03 in1016.9 mb 0.00 in0.0 mm 0.00 in0.0 mm 0.00 in0.0 mm
10:00 AM 79.9°F26.6°C 58.5°F14.7°C 48% 2.3 mph N3.7 kmh N 3.1 mph5.0 kmh 30.02 in1016.6 mb 0.00 in0.0 mm 0.00 in0.0 mm 0.00 in0.0 mm
10:15 AM 79.3°F26.3°C 58.0°F14.4°C 48% 4.0 mph N6.4 kmh N 7.6 mph12.2 kmh 30.02 in1016.6 mb 0.00 in0.0 mm 0.00 in0.0 mm 0.00 in0.0 mm
10:30 AM 79.0°F26.1°C 58.2°F14.6°C 49% 2.7 mph W4.3 kmh W 3.8 mph6.1 kmh 30.02 in1016.6 mb 0.00 in0.0 mm 0.00 in0.0 mm 0.00 in0.0 mm
10:45 AM 78.8°F26.0°C 59.2°F15.1°C 51% 4.2 mph N6.8 kmh N 7.6 mph12.2 kmh 30.02 in1016.6 mb 0.00 in0.0 mm 0.00 in0.0 mm 0.00 in0.0 mm
11:00 AM 79.0°F26.1°C 58.8°F14.9°C 50% 3.9 mph NW6.3 kmh NW 5.4 mph8.7 kmh 30.02 in1016.6 mb 0.00 in0.0 mm 0.00 in0.0 mm 0.00 in0.0 mm
11:15 AM 77.7°F25.4°C 58.7°F14.8°C 52% 5.5 mph N8.9 kmh N 7.6 mph12.2 kmh 30.01 in1016.3 mb 0.00 in0.0 mm 0.00 in0.0 mm 0.00 in0.0 mm
11:30 AM 78.3°F25.7°C 59.2°F15.1°C 52% 4.6 mph NE7.4 kmh NE 7.6 mph12.2 kmh 30.00 in1015.9 mb 0.00 in0.0 mm 0.00 in0.0 mm 0.00 in0.0 mm
11:45 AM 77.5°F25.3°C 59.6°F15.3°C 54% 5.8 mph N9.3 kmh N 9.2 mph14.8 kmh 30.00 in1015.9 mb 0.00 in0.0 mm 0.00 in0.0 mm 0.00 in0.0 mm
12:00 PM 78.3°F25.7°C 58.7°F14.8°C 51% 5.6 mph N9.0 kmh N 8.3 mph13.4 kmh 30.00 in1015.9 mb 0.00 in0.0 mm 0.00 in0.0 mm 0.00 in0.0 mm
12:15 PM 78.3°F25.7°C 59.2°F15.1°C 52% 4.3 mph N6.9 kmh N 6.0 mph9.7 kmh 29.99 in1015.6 mb 0.00 in0.0 mm 0.00 in0.0 mm 0.00 in0.0 mm
12:30 PM 77.2°F25.1°C 59.3°F15.2°C 54% 4.2 mph NNW6.8 kmh NNW 7.6 mph12.2 kmh 29.99 in1015.6 mb 0.00 in0.0 mm 0.00 in0.0 mm 0.00 in0.0 mm
12:45 PM 76.1°F24.5°C 58.3°F14.6°C 54% 3.3 mph N5.3 kmh N 6.0 mph9.7 kmh 29.99 in1015.6 mb 0.00 in0.0 mm 0.00 in0.0 mm 0.00 in0.0 mm
01:00 PM 78.1°F25.6°C 60.1°F15.6°C 54% 3.4 mph NNE5.5 kmh NNE 6.9 mph11.1 kmh 29.99 in1015.6 mb 0.00 in0.0 mm 0.00 in0.0 mm 0.00 in0.0 mm
01:15 PM 79.0°F26.1°C 59.3°F15.2°C 51% 4.7 mph NNE7.6 kmh NNE 8.3 mph13.4 kmh 29.99 in1015.6 mb 0.00 in0.0 mm 0.00 in0.0 mm 0.00 in0.0 mm
01:30 PM 78.1°F25.6°C 59.1°F15.1°C 52% 4.5 mph N7.2 kmh N 6.0 mph9.7 kmh 29.99 in1015.6 mb 0.00 in0.0 mm 0.00 in0.0 mm 0.00 in0.0 mm
01:45 PM 76.8°F24.9°C 59.5°F15.3°C 55% 4.0 mph NE6.4 kmh NE 7.6 mph12.2 kmh 29.98 in1015.2 mb 0.00 in0.0 mm 0.00 in0.0 mm 0.00 in0.0 mm
02:00 PM 75.4°F24.1°C 59.1°F15.1°C 57% 4.1 mph N6.6 kmh N 6.0 mph9.7 kmh 29.98 in1015.2 mb 0.00 in0.0 mm 0.00 in0.0 mm 0.00 in0.0 mm
02:15 PM 75.4°F24.1°C 59.1°F15.1°C 57% 3.7 mph N6.0 kmh N 5.4 mph8.7 kmh 29.98 in1015.2 mb 0.00 in0.0 mm 0.00 in0.0 mm 0.00 in0.0 mm
02:30 PM 74.3°F23.5°C 58.6°F14.8°C 58% 4.8 mph N7.7 kmh N 7.6 mph12.2 kmh 29.97 in1014.9 mb 0.00 in0.0 mm 0.00 in0.0 mm 0.00 in0.0 mm
02:45 PM 75.9°F24.4°C 59.1°F15.1°C 56% 4.5 mph N7.2 kmh N 6.9 mph11.1 kmh 29.98 in1015.2 mb 0.00 in0.0 mm 0.00 in0.0 mm 0.00 in0.0 mm
03:00 PM 75.9°F24.4°C 59.1°F15.1°C 56% 3.9 mph N6.3 kmh N 5.4 mph8.7 kmh 29.97 in1014.9 mb 0.00 in0.0 mm 0.00 in0.0 mm 0.00 in0.0 mm
03:15 PM 74.3°F23.5°C 58.6°F14.8°C 58% 3.1 mph NNW5.0 kmh NNW 4.5 mph7.2 kmh 29.97 in1014.9 mb 0.00 in0.0 mm 0.00 in0.0 mm 0.00 in0.0 mm
03:30 PM 75.2°F24.0°C 59.0°F15.0°C 57% 3.0 mph NNE4.8 kmh NNE 5.4 mph8.7 kmh 29.96 in1014.6 mb 0.00 in0.0 mm 0.00 in0.0 mm 0.00 in0.0 mm
03:45 PM 74.1°F23.4°C 58.4°F14.7°C 58% 3.0 mph NNE4.8 kmh NNE 4.5 mph7.2 kmh 29.96 in1014.6 mb 0.00 in0.0 mm 0.00 in0.0 mm 0.00 in0.0 mm
04:00 PM 73.6°F23.1°C 58.4°F14.7°C 59% 2.6 mph NNE4.2 kmh NNE 5.4 mph8.7 kmh 29.96 in1014.6 mb 0.00 in0.0 mm 0.00 in0.0 mm 0.00 in0.0 mm
04:15 PM 73.2°F22.9°C 58.5°F14.7°C 60% 1.8 mph N2.9 kmh N 3.1 mph5.0 kmh 29.96 in1014.6 mb 0.00 in0.0 mm 0.00 in0.0 mm 0.00 in0.0 mm
04:30 PM 73.2°F22.9°C 58.5°F14.7°C 60% 1.2 mph N1.9 kmh N 2.2 mph3.5 kmh 29.96 in1014.6 mb 0.00 in0.0 mm 0.00 in0.0 mm 0.00 in0.0 mm
04:45 PM 73.8°F23.2°C 59.5°F15.3°C 61% 1.8 mph N2.9 kmh N 3.1 mph5.0 kmh 29.95 in1014.2 mb 0.00 in0.0 mm 0.00 in0.0 mm 0.00 in0.0 mm
05:00 PM 73.6°F23.1°C 59.3°F15.2°C 61% 1.7 mph NNE2.7 kmh NNE 2.2 mph3.5 kmh 29.95 in1014.2 mb 0.00 in0.0 mm 0.00 in0.0 mm 0.00 in0.0 mm
05:15 PM 73.2°F22.9°C 58.5°F14.7°C 60% 1.6 mph NNE2.6 kmh NNE 2.2 mph3.5 kmh 29.95 in1014.2 mb 0.00 in0.0 mm 0.00 in0.0 mm 0.00 in0.0 mm
05:30 PM 73.2°F22.9°C 59.5°F15.3°C 62% 1.2 mph N1.9 kmh N 1.6 mph2.6 kmh 29.95 in1014.2 mb 0.00 in0.0 mm 0.00 in0.0 mm 0.00 in0.0 mm
05:45 PM 71.6°F22.0°C 59.2°F15.1°C 65% 0.2 mph NE0.3 kmh NE 0.7 mph1.1 kmh 29.95 in1014.2 mb 0.00 in0.0 mm 0.00 in0.0 mm 0.00 in0.0 mm
06:00 PM 71.6°F22.0°C 60.1°F15.6°C 67% Calm Calm -- 29.94 in1013.9 mb 0.00 in0.0 mm 0.00 in0.0 mm 0.00 in0.0 mm
06:15 PM 70.9°F21.6°C 60.6°F15.9°C 70% 0.2 mph S0.3 kmh S 0.7 mph1.1 kmh 29.94 in1013.9 mb 0.00 in0.0 mm 0.00 in0.0 mm 0.00 in0.0 mm
06:30 PM 70.7°F21.5°C 60.5°F15.8°C 70% Calm Calm -- 29.94 in1013.9 mb 0.00 in0.0 mm 0.00 in0.0 mm 0.00 in0.0 mm
06:45 PM 70.2°F21.2°C 60.7°F15.9°C 72% Calm Calm -- 29.95 in1014.2 mb 0.00 in0.0 mm 0.00 in0.0 mm 0.00 in0.0 mm
07:00 PM 69.8°F21.0°C 60.8°F16.0°C 73% Calm Calm -- 29.94 in1013.9 mb 0.00 in0.0 mm 0.00 in0.0 mm 0.00 in0.0 mm
07:15 PM 69.3°F20.7°C 61.0°F16.1°C 75% Calm Calm -- 29.94 in1013.9 mb 0.00 in0.0 mm 0.00 in0.0 mm 0.00 in0.0 mm
07:30 PM 69.1°F20.6°C 61.2°F16.2°C 76% 0.2 mph SW0.3 kmh SW 0.7 mph1.1 kmh 29.94 in1013.9 mb 0.00 in0.0 mm 0.00 in0.0 mm 0.00 in0.0 mm
07:45 PM 69.1°F20.6°C 61.6°F16.4°C 77% Calm Calm -- 29.95 in1014.2 mb 0.00 in0.0 mm 0.00 in0.0 mm 0.00 in0.0 mm
08:00 PM 68.9°F20.5°C 61.8°F16.6°C 78% Calm Calm -- 29.94 in1013.9 mb 0.00 in0.0 mm 0.00 in0.0 mm 0.00 in0.0 mm
08:15 PM 68.9°F20.5°C 61.4°F16.3°C 77% Calm Calm -- 29.93 in1013.5 mb 0.00 in0.0 mm 0.00 in0.0 mm 0.00 in0.0 mm
08:30 PM 68.2°F20.1°C 60.4°F15.8°C 76% 0.1 mph NW0.2 kmh NW 0.7 mph1.1 kmh 29.94 in1013.9 mb 0.00 in0.0 mm 0.00 in0.0 mm 0.00 in0.0 mm
08:45 PM 67.3°F19.6°C 59.5°F15.3°C 76% 0.1 mph W0.2 kmh W 0.7 mph1.1 kmh 29.94 in1013.9 mb 0.00 in0.0 mm 0.00 in0.0 mm 0.00 in0.0 mm
09:00 PM 65.8°F18.8°C 58.4°F14.7°C 77% Calm Calm -- 29.94 in1013.9 mb 0.00 in0.0 mm 0.00 in0.0 mm 0.00 in0.0 mm
09:15 PM 64.9°F18.3°C 57.9°F14.4°C 78% Calm Calm -- 29.94 in1013.9 mb 0.00 in0.0 mm 0.00 in0.0 mm 0.00 in0.0 mm
09:30 PM 63.7°F17.6°C 56.7°F13.7°C 78% Calm Calm -- 29.95 in1014.2 mb 0.00 in0.0 mm 0.00 in0.0 mm 0.00 in0.0 mm
09:45 PM 62.4°F16.9°C 56.2°F13.4°C 80% Calm Calm -- 29.94 in1013.9 mb 0.00 in0.0 mm 0.00 in0.0 mm 0.00 in0.0 mm
10:00 PM 61.7°F16.5°C 55.5°F13.1°C 80% 0.4 mph SW0.6 kmh SW 1.6 mph2.6 kmh 29.95 in1014.2 mb 0.00 in0.0 mm 0.00 in0.0 mm 0.00 in0.0 mm
10:15 PM 60.6°F15.9°C 55.1°F12.8°C 82% 0.1 mph WNW0.2 kmh WNW 0.7 mph1.1 kmh 29.95 in1014.2 mb 0.00 in0.0 mm 0.00 in0.0 mm 0.00 in0.0 mm
10:30 PM 59.4°F15.2°C 54.2°F12.3°C 83% 0.1 mph NW0.2 kmh NW 0.7 mph1.1 kmh 29.95 in1014.2 mb 0.00 in0.0 mm 0.00 in0.0 mm 0.00 in0.0 mm
10:45 PM 58.8°F14.9°C 53.7°F12.1°C 83% 0.2 mph SW0.3 kmh SW 1.6 mph2.6 kmh 29.95 in1014.2 mb 0.00 in0.0 mm 0.00 in0.0 mm 0.00 in0.0 mm
11:00 PM 58.1°F14.5°C 52.6°F11.4°C 82% 0.1 mph NW0.2 kmh NW 0.7 mph1.1 kmh 29.94 in1013.9 mb 0.00 in0.0 mm 0.00 in0.0 mm 0.00 in0.0 mm
11:15 PM 57.6°F14.2°C 52.4°F11.3°C 83% 0.3 mph W0.5 kmh W 1.6 mph2.6 kmh 29.95 in1014.2 mb 0.00 in0.0 mm 0.00 in0.0 mm 0.00 in0.0 mm
11:30 PM 57.2°F14.0°C 51.8°F11.0°C 82% 0.4 mph W0.6 kmh W 0.7 mph1.1 kmh 29.95 in1014.2 mb 0.00 in0.0 mm 0.00 in0.0 mm 0.00 in0.0 mm
11:45 PM 56.7°F13.7°C 51.6°F10.9°C 83% 0.4 mph WNW0.6 kmh WNW 0.7 mph1.1 kmh 29.94 in1013.9 mb 0.00 in0.0 mm 0.00 in0.0 mm 0.00 in0.0 mm